Time;durP1;ratioP1;P1;durP2;ratioP2;P2;SDS_P1;SDS_P2;PMS_P1;PMS_P2;Temp;Humidity;BMP_temperature;BMP_pressure;BME280_temperature;BME280_humidity;BME280_pressure;Samples;Min_cycle;Max_cycle;Signal;HPM_P1;HPM_P2
2021/06/13 00:01:23;;;;;;;6.40;5.05;;;;;;;;;;7007891;28;20128;-86
2021/06/13 00:04:43;;;;;;;7.40;4.82;;;;;;;;;;7003626;28;20039;-86
2021/06/13 00:08:04;;;;;;;6.75;4.60;;;;;;;;;;7027835;28;20040;-86
2021/06/13 00:11:24;;;;;;;7.65;4.43;;;;;;;;;;7026879;28;20046;-86
2021/06/13 00:14:45;;;;;;;8.13;4.55;;;;;;;;;;7009003;28;20047;-87
2021/06/13 00:18:05;;;;;;;12.45;4.57;;;;;;;;;;7025912;28;20076;-86
2021/06/13 00:21:26;;;;;;;6.85;4.50;;;;;;;;;;7016313;28;20052;-86
2021/06/13 00:24:46;;;;;;;5.90;4.70;;;;;;;;;;7020383;28;20052;-86
2021/06/13 00:28:07;;;;;;;5.88;4.70;;;;;;;;;;7006387;28;20109;-87
2021/06/13 00:31:27;;;;;;;6.20;5.60;;;;;;;;;;6998663;28;20123;-86
2021/06/13 00:34:48;;;;;;;8.80;6.22;;;;;;;;;;7025814;28;20497;-89
2021/06/13 00:38:08;;;;;;;5.57;4.50;;;;;;;;;;7024974;28;20063;-88
2021/06/13 00:41:28;;;;;;;11.88;5.25;;;;;;;;;;7007522;28;20044;-88
2021/06/13 00:44:49;;;;;;;6.25;5.13;;;;;;;;;;6988646;28;20048;-87
2021/06/13 00:48:10;;;;;;;19.13;5.03;;;;;;;;;;7026570;28;20156;-87
2021/06/13 00:51:30;;;;;;;6.18;5.18;;;;;;;;;;7025641;28;20055;-88
2021/06/13 00:54:51;;;;;;;5.80;5.20;;;;;;;;;;7008245;28;20138;-87
2021/06/13 00:58:11;;;;;;;6.28;5.07;;;;;;;;;;7005838;28;20051;-87
2021/06/13 01:01:32;;;;;;;6.18;4.85;;;;;;;;;;7021507;28;20143;-86
2021/06/13 01:04:52;;;;;;;12.75;5.22;;;;;;;;;;7024462;28;20386;-87
2021/06/13 01:08:28;;;;;;;6.30;5.25;;;;;;;;;;6991552;28;20508;-88
2021/06/13 01:11:56;;;;;;;9.82;5.13;;;;;;;;;;7021745;28;20405;-88
2021/06/13 01:15:19;;;;;;;5.88;5.32;;;;;;;;;;7004506;28;20047;-88
2021/06/13 01:18:48;;;;;;;8.18;5.40;;;;;;;;;;7007949;28;20406;-87
2021/06/13 01:22:19;;;;;;;7.05;5.38;;;;;;;;;;7007119;28;20136;-88
2021/06/13 01:26:07;;;;;;;6.35;4.95;;;;;;;;;;7076294;22;20531;-89
2021/06/13 01:29:38;;;;;;;5.45;4.90;;;;;;;;;;7052409;28;20404;-89
2021/06/13 01:33:03;;;;;;;9.38;5.57;;;;;;;;;;7029676;28;20108;-87
2021/06/13 01:36:24;;;;;;;8.93;6.43;;;;;;;;;;7035371;28;20048;-86
2021/06/13 01:39:46;;;;;;;8.15;5.03;;;;;;;;;;7035202;28;20056;-86
2021/06/13 01:43:07;;;;;;;6.70;5.57;;;;;;;;;;7020654;28;20059;-87
2021/06/13 01:46:32;;;;;;;8.40;6.43;;;;;;;;;;7048329;28;20058;-87
2021/06/13 01:49:54;;;;;;;7.70;6.65;;;;;;;;;;7011376;28;20079;-89
2021/06/13 01:53:16;;;;;;;8.82;6.47;;;;;;;;;;7062445;28;20376;-89
2021/06/13 01:56:41;;;;;;;8.40;5.65;;;;;;;;;;7034282;28;20052;-88
2021/06/13 02:00:08;;;;;;;8.77;7.90;;;;;;;;;;7020319;28;20131;-87
2021/06/13 02:03:28;;;;;;;7.57;6.07;;;;;;;;;;7035098;28;20040;-87
2021/06/13 02:06:51;;;;;;;10.77;6.40;;;;;;;;;;7079769;28;20107;-87
2021/06/13 02:10:14;;;;;;;9.13;5.68;;;;;;;;;;7058501;28;20123;-86
2021/06/13 02:13:36;;;;;;;13.88;6.13;;;;;;;;;;7017205;28;20047;-86
2021/06/13 02:16:58;;;;;;;6.45;5.72;;;;;;;;;;7037710;28;20052;-86
2021/06/13 02:20:21;;;;;;;8.80;5.53;;;;;;;;;;7037330;28;20050;-86
2021/06/13 02:23:43;;;;;;;9.77;5.65;;;;;;;;;;7055983;28;20044;-87
2021/06/13 02:27:04;;;;;;;6.57;5.45;;;;;;;;;;7025055;28;20039;-86
2021/06/13 02:30:26;;;;;;;8.20;5.75;;;;;;;;;;7032679;28;20054;-86
2021/06/13 02:33:47;;;;;;;6.07;5.47;;;;;;;;;;7028571;28;20047;-90
2021/06/13 02:37:08;;;;;;;6.53;5.68;;;;;;;;;;7051618;28;20039;-90
2021/06/13 02:40:29;;;;;;;6.82;6.13;;;;;;;;;;7064158;28;20496;-89
2021/06/13 02:43:50;;;;;;;8.07;5.90;;;;;;;;;;7037274;28;20074;-90
2021/06/13 02:47:12;;;;;;;13.90;6.28;;;;;;;;;;7027402;28;20060;-89
2021/06/13 02:50:33;;;;;;;11.10;6.72;;;;;;;;;;7063569;28;20557;-88
2021/06/13 02:53:57;;;;;;;12.13;8.45;;;;;;;;;;7028677;28;20393;-89
2021/06/13 02:57:24;;;;;;;11.98;7.88;;;;;;;;;;7067517;28;20405;-90
2021/06/13 03:00:46;;;;;;;9.20;7.57;;;;;;;;;;7044837;28;20138;-90
2021/06/13 03:04:11;;;;;;;9.60;7.75;;;;;;;;;;7005930;28;20043;-90
2021/06/13 03:07:32;;;;;;;9.40;7.15;;;;;;;;;;7035719;28;20488;-89
2021/06/13 03:10:53;;;;;;;7.75;6.90;;;;;;;;;;7060825;28;20062;-89
2021/06/13 03:14:14;;;;;;;6.22;5.55;;;;;;;;;;7041742;28;20039;-87
2021/06/13 03:17:35;;;;;;;8.30;5.25;;;;;;;;;;7066521;28;20077;-88
2021/06/13 03:20:57;;;;;;;6.97;5.28;;;;;;;;;;7058684;28;20126;-87
2021/06/13 03:24:20;;;;;;;5.63;5.10;;;;;;;;;;7038315;28;20040;-87
2021/06/13 03:27:43;;;;;;;8.75;5.22;;;;;;;;;;7063231;28;20520;-88
2021/06/13 03:31:04;;;;;;;6.78;6.15;;;;;;;;;;7008894;28;20130;-88
2021/06/13 03:34:25;;;;;;;9.15;6.38;;;;;;;;;;7010949;28;20043;-88
2021/06/13 03:37:46;;;;;;;7.30;6.00;;;;;;;;;;7034608;28;20043;-88
2021/06/13 03:41:08;;;;;;;8.48;5.50;;;;;;;;;;7009597;28;20071;-87
2021/06/13 03:44:29;;;;;;;7.90;5.82;;;;;;;;;;7045437;28;20041;-87
2021/06/13 03:47:50;;;;;;;8.98;6.78;;;;;;;;;;7074778;28;20051;-88
2021/06/13 03:51:12;;;;;;;10.13;8.02;;;;;;;;;;7038211;28;20052;-87
2021/06/13 03:54:33;;;;;;;20.00;7.03;;;;;;;;;;7028609;28;20040;-86
2021/06/13 03:57:54;;;;;;;10.45;6.68;;;;;;;;;;7046709;28;20101;-87
2021/06/13 04:01:19;;;;;;;8.27;6.20;;;;;;;;;;7037731;28;20136;-86
2021/06/13 04:04:44;;;;;;;14.65;5.60;;;;;;;;;;7060135;28;20053;-87
2021/06/13 04:08:07;;;;;;;13.27;7.88;;;;;;;;;;7057246;28;20497;-86
2021/06/13 04:11:27;;;;;;;12.98;8.82;;;;;;;;;;7045725;28;20047;-87
2021/06/13 04:14:48;;;;;;;11.35;9.35;;;;;;;;;;7058071;28;20044;-87
2021/06/13 04:18:09;;;;;;;11.07;7.35;;;;;;;;;;7028862;28;20140;-87
2021/06/13 04:21:30;;;;;;;10.02;7.80;;;;;;;;;;7043589;28;20195;-89
2021/06/13 04:24:52;;;;;;;11.80;10.32;;;;;;;;;;7039764;28;20071;-90
2021/06/13 04:28:18;;;;;;;9.07;8.15;;;;;;;;;;7051316;28;20077;-89
2021/06/13 04:31:38;;;;;;;10.38;8.90;;;;;;;;;;7064138;28;20090;-88
2021/06/13 04:34:59;;;;;;;9.85;7.50;;;;;;;;;;7021466;28;20040;-87
2021/06/13 04:38:19;;;;;;;8.70;7.68;;;;;;;;;;7063253;28;20444;-87
2021/06/13 04:41:40;;;;;;;10.00;8.70;;;;;;;;;;7050827;28;20067;-87
2021/06/13 04:45:06;;;;;;;12.38;7.88;;;;;;;;;;7028550;28;20055;-87
2021/06/13 04:48:26;;;;;;;10.50;9.32;;;;;;;;;;7046584;28;20472;-86
2021/06/13 04:51:50;;;;;;;14.23;9.95;;;;;;;;;;7069607;28;20480;-86
2021/06/13 04:55:30;;;;;;;10.38;8.13;;;;;;;;;;7069576;28;20576;-87
2021/06/13 04:58:50;;;;;;;12.18;10.27;;;;;;;;;;7031679;28;20054;-86
2021/06/13 05:02:11;;;;;;;12.88;10.43;;;;;;;;;;7057409;28;20039;-87
2021/06/13 05:05:31;;;;;;;11.27;10.10;;;;;;;;;;7021456;28;20448;-85
2021/06/13 05:08:52;;;;;;;10.40;9.30;;;;;;;;;;7068232;28;20108;-84
2021/06/13 05:12:12;;;;;;;10.73;9.70;;;;;;;;;;7081773;28;20051;-85
2021/06/13 05:15:32;;;;;;;11.98;8.48;;;;;;;;;;7021637;28;20108;-84
2021/06/13 05:18:53;;;;;;;11.40;9.70;;;;;;;;;;7068424;28;20135;-84
2021/06/13 05:22:13;;;;;;;11.32;8.85;;;;;;;;;;7080844;28;20130;-85
2021/06/13 05:25:36;;;;;;;11.93;6.50;;;;;;;;;;7045239;28;20046;-85
2021/06/13 05:28:57;;;;;;;6.55;5.93;;;;;;;;;;7023994;28;20059;-85
2021/06/13 05:32:18;;;;;;;6.97;6.28;;;;;;;;;;7035799;28;20050;-84
2021/06/13 05:35:39;;;;;;;8.05;6.63;;;;;;;;;;7050905;28;20036;-85
2021/06/13 05:38:59;;;;;;;22.17;6.10;;;;;;;;;;7061703;28;20035;-86
2021/06/13 05:42:19;;;;;;;7.22;5.55;;;;;;;;;;7051388;28;20088;-86
2021/06/13 05:45:41;;;;;;;9.25;6.47;;;;;;;;;;7045120;28;20123;-86
2021/06/13 05:49:01;;;;;;;12.52;7.78;;;;;;;;;;7022098;28;20086;-86
2021/06/13 05:52:22;;;;;;;10.90;7.25;;;;;;;;;;7030777;28;20453;-85
2021/06/13 05:55:42;;;;;;;6.95;6.25;;;;;;;;;;7016287;28;20123;-84
2021/06/13 05:59:03;;;;;;;14.50;6.75;;;;;;;;;;7049063;28;20425;-84
2021/06/13 06:02:23;;;;;;;7.68;6.22;;;;;;;;;;7051713;28;20461;-83
2021/06/13 06:05:43;;;;;;;11.73;7.13;;;;;;;;;;7033455;28;20075;-81
2021/06/13 06:09:04;;;;;;;9.63;7.13;;;;;;;;;;7054233;28;20047;-80
2021/06/13 06:12:25;;;;;;;9.95;7.05;;;;;;;;;;7055154;28;20100;-80
2021/06/13 06:15:47;;;;;;;7.93;5.45;;;;;;;;;;7022538;28;20059;-81
2021/06/13 06:19:08;;;;;;;10.80;5.47;;;;;;;;;;7054434;28;20048;-80
2021/06/13 06:22:28;;;;;;;10.20;5.80;;;;;;;;;;7032663;28;20130;-80
2021/06/13 06:25:49;;;;;;;7.82;6.35;;;;;;;;;;7033029;28;20427;-81
2021/06/13 06:29:10;;;;;;;14.10;6.35;;;;;;;;;;7028175;28;20051;-80
2021/06/13 06:32:30;;;;;;;16.75;5.75;;;;;;;;;;7038687;28;20060;-81
2021/06/13 06:35:51;;;;;;;42.42;7.45;;;;;;;;;;7055165;28;20078;-81
2021/06/13 06:39:11;;;;;;;20.00;15.55;;;;;;;;;;7065404;28;20551;-81
2021/06/13 06:42:33;;;;;;;17.65;13.43;;;;;;;;;;7066158;28;20545;-80
2021/06/13 06:45:53;;;;;;;23.60;16.17;;;;;;;;;;7052366;28;20403;-81
2021/06/13 06:49:13;;;;;;;21.88;17.58;;;;;;;;;;7073415;28;20508;-81
2021/06/13 06:52:34;;;;;;;22.40;17.58;;;;;;;;;;7076029;28;20109;-81
2021/06/13 06:55:54;;;;;;;25.58;17.88;;;;;;;;;;7070622;28;20043;-82
2021/06/13 06:59:15;;;;;;;20.27;18.17;;;;;;;;;;7071391;28;20043;-82
2021/06/13 07:02:35;;;;;;;24.08;18.15;;;;;;;;;;7040263;28;20071;-82
2021/06/13 07:05:56;;;;;;;21.33;17.88;;;;;;;;;;7045588;28;20090;-82
2021/06/13 07:09:16;;;;;;;25.17;18.15;;;;;;;;;;7063850;27;20392;-82
2021/06/13 07:12:37;;;;;;;21.95;18.92;;;;;;;;;;7074575;28;20048;-82
2021/06/13 07:15:57;;;;;;;25.85;19.92;;;;;;;;;;7058611;28;20043;-82
2021/06/13 07:19:18;;;;;;;27.88;19.98;;;;;;;;;;7056113;28;20512;-82
2021/06/13 07:22:39;;;;;;;22.48;20.10;;;;;;;;;;7071511;28;20044;-82
2021/06/13 07:26:00;;;;;;;25.48;20.48;;;;;;;;;;7039115;28;20399;-82
2021/06/13 07:29:20;;;;;;;25.25;21.17;;;;;;;;;;7062648;28;20508;-82
2021/06/13 07:32:41;;;;;;;26.73;20.55;;;;;;;;;;7077872;28;20043;-82
2021/06/13 07:36:02;;;;;;;27.75;22.58;;;;;;;;;;7062260;28;20074;-82
2021/06/13 07:39:22;;;;;;;24.65;20.65;;;;;;;;;;7048470;28;20063;-82
2021/06/13 07:42:43;;;;;;;23.70;19.95;;;;;;;;;;7065799;28;20135;-80
2021/06/13 07:46:03;;;;;;;21.58;18.95;;;;;;;;;;7064525;28;20137;-82
2021/06/13 07:49:24;;;;;;;18.65;16.45;;;;;;;;;;7079742;28;20063;-84
2021/06/13 07:52:45;;;;;;;24.83;15.93;;;;;;;;;;7040645;28;20059;-85
2021/06/13 07:56:06;;;;;;;17.50;15.20;;;;;;;;;;7024537;28;20044;-84
2021/06/13 07:59:26;;;;;;;19.85;17.02;;;;;;;;;;7058828;28;20138;-83
2021/06/13 08:02:46;;;;;;;20.92;16.75;;;;;;;;;;7065435;28;20054;-84
2021/06/13 08:06:07;;;;;;;19.35;16.20;;;;;;;;;;7072044;28;20081;-85
2021/06/13 08:09:28;;;;;;;22.67;18.70;;;;;;;;;;7058251;28;20057;-84
2021/06/13 08:12:49;;;;;;;21.70;17.30;;;;;;;;;;7074212;28;20047;-84
2021/06/13 08:16:09;;;;;;;25.30;20.13;;;;;;;;;;7082598;28;20039;-84
2021/06/13 08:19:30;;;;;;;23.90;18.17;;;;;;;;;;7059717;28;20051;-84
2021/06/13 08:22:50;;;;;;;20.80;17.65;;;;;;;;;;7078338;27;20136;-84
2021/06/13 08:26:11;;;;;;;26.33;19.13;;;;;;;;;;7072465;28;20058;-84
2021/06/13 08:29:32;;;;;;;24.08;17.17;;;;;;;;;;7072096;28;20043;-84
2021/06/13 08:32:52;;;;;;;21.27;17.77;;;;;;;;;;7082599;28;20047;-84
2021/06/13 08:36:13;;;;;;;22.08;17.55;;;;;;;;;;7043257;28;20489;-84
2021/06/13 08:39:33;;;;;;;17.80;14.43;;;;;;;;;;7065190;28;20142;-84
2021/06/13 08:42:54;;;;;;;18.65;14.93;;;;;;;;;;7045346;28;20044;-84
2021/06/13 08:46:15;;;;;;;30.25;18.35;;;;;;;;;;7057413;28;20055;-84
2021/06/13 08:49:35;;;;;;;18.13;16.00;;;;;;;;;;7038643;28;20054;-84
2021/06/13 08:52:56;;;;;;;21.38;16.83;;;;;;;;;;7068034;28;20048;-84
2021/06/13 08:56:19;;;;;;;18.05;15.98;;;;;;;;;;7023124;28;20052;-85
2021/06/13 08:59:40;;;;;;;19.42;14.27;;;;;;;;;;7077353;28;20054;-83
2021/06/13 09:03:03;;;;;;;25.02;13.95;;;;;;;;;;7057966;28;20048;-82
2021/06/13 09:06:23;;;;;;;17.13;12.38;;;;;;;;;;7026640;28;20465;-82
2021/06/13 09:09:44;;;;;;;12.38;11.05;;;;;;;;;;7062329;28;20473;-83
2021/06/13 09:13:24;;;;;;;12.73;10.20;;;;;;;;;;7052326;28;20127;-83
2021/06/13 09:16:47;;;;;;;19.38;14.70;;;;;;;;;;7034418;28;20108;-81
2021/06/13 09:20:20;;;;;;;18.02;13.55;;;;;;;;;;7057679;28;20505;-80
2021/06/13 09:23:42;;;;;;;27.23;13.15;;;;;;;;;;7044087;28;20081;-80
2021/06/13 09:27:08;;;;;;;16.00;14.40;;;;;;;;;;7041361;28;20066;-80
2021/06/13 09:30:34;;;;;;;17.45;14.55;;;;;;;;;;7034759;28;20047;-80
2021/06/13 09:33:58;;;;;;;17.60;14.82;;;;;;;;;;7030364;28;20041;-80
2021/06/13 09:37:19;;;;;;;12.95;11.15;;;;;;;;;;7066347;28;20039;-80
2021/06/13 09:40:44;;;;;;;11.10;9.93;;;;;;;;;;7060264;28;20147;-80
2021/06/13 09:44:07;;;;;;;12.60;9.60;;;;;;;;;;7025879;28;20040;-80
2021/06/13 09:47:28;;;;;;;11.35;9.27;;;;;;;;;;7059303;28;20521;-80
2021/06/13 09:50:54;;;;;;;10.38;7.88;;;;;;;;;;7035017;28;20047;-80
2021/06/13 09:54:20;;;;;;;17.70;15.75;;;;;;;;;;7043998;28;20047;-81
2021/06/13 09:58:06;;;;;;;19.80;13.93;;;;;;;;;;7030758;28;20079;-80
2021/06/13 10:01:32;;;;;;;21.40;17.45;;;;;;;;;;7044051;28;20062;-80
2021/06/13 10:04:52;;;;;;;33.15;19.33;;;;;;;;;;7066213;28;20096;-81
2021/06/13 10:08:16;;;;;;;16.25;14.52;;;;;;;;;;7028509;28;20105;-80
2021/06/13 10:11:37;;;;;;;17.90;11.27;;;;;;;;;;7051896;28;20048;-81
2021/06/13 10:15:11;;;;;;;21.00;15.55;;;;;;;;;;7029654;28;20495;-80
2021/06/13 10:18:32;;;;;;;13.60;12.20;;;;;;;;;;7021050;28;20059;-82
2021/06/13 10:22:02;;;;;;;22.67;17.33;;;;;;;;;;7066189;28;20126;-83
2021/06/13 10:25:22;;;;;;;25.35;20.58;;;;;;;;;;7059333;28;20058;-81
2021/06/13 10:28:43;;;;;;;17.77;15.88;;;;;;;;;;7039674;28;20055;-81
2021/06/13 10:32:05;;;;;;;22.20;16.35;;;;;;;;;;7065937;28;20040;-80
2021/06/13 10:35:25;;;;;;;19.30;13.63;;;;;;;;;;7051137;28;20504;-84
2021/06/13 10:38:46;;;;;;;16.73;11.85;;;;;;;;;;7056802;28;20126;-80
2021/06/13 10:42:12;;;;;;;18.45;11.15;;;;;;;;;;7056705;28;20040;-80
2021/06/13 10:45:33;;;;;;;15.05;11.15;;;;;;;;;;7026886;28;20056;-81
2021/06/13 10:48:54;;;;;;;18.17;10.25;;;;;;;;;;7055402;28;20086;-79
2021/06/13 10:52:14;;;;;;;26.23;10.40;;;;;;;;;;7054833;28;20046;-80
2021/06/13 10:55:51;;;;;;;22.60;10.47;;;;;;;;;;7056037;28;20051;-79
2021/06/13 10:59:13;;;;;;;10.48;9.35;;;;;;;;;;7037729;28;20486;-79
2021/06/13 11:02:34;;;;;;;10.98;8.85;;;;;;;;;;7037404;28;20396;-79
2021/06/13 11:05:54;;;;;;;10.73;8.20;;;;;;;;;;7055142;28;20488;-79
2021/06/13 11:09:17;;;;;;;10.07;8.52;;;;;;;;;;7055249;28;20452;-79
2021/06/13 11:13:09;;;;;;;9.60;8.63;;;;;;;;;;7059510;28;20393;-81
2021/06/13 11:16:40;;;;;;;17.20;8.90;;;;;;;;;;7045662;28;20126;-81
2021/06/13 11:24:02;;;;;;;12.70;7.20;;;;;;;;;;7057318;28;20503;-81
2021/06/13 11:27:22;;;;;;;14.63;8.00;;;;;;;;;;7049695;28;20060;-81
2021/06/13 11:30:47;;;;;;;12.30;7.45;;;;;;;;;;7069895;28;20043;-81
2021/06/13 11:34:07;;;;;;;12.90;8.90;;;;;;;;;;7045667;28;20387;-81
2021/06/13 11:37:27;;;;;;;10.77;8.48;;;;;;;;;;7045535;28;20540;-81
2021/06/13 11:40:54;;;;;;;10.88;8.20;;;;;;;;;;7021029;28;20070;-81
2021/06/13 11:44:21;;;;;;;13.90;8.10;;;;;;;;;;7037050;28;20044;-81
2021/06/13 11:47:41;;;;;;;8.45;7.25;;;;;;;;;;7058977;28;20376;-81
2021/06/13 11:51:08;;;;;;;8.70;7.28;;;;;;;;;;7036631;28;20554;-81
2021/06/13 11:54:34;;;;;;;11.90;7.15;;;;;;;;;;7053200;28;20047;-81
2021/06/13 11:57:55;;;;;;;12.18;7.70;;;;;;;;;;7031355;28;20122;-82
2021/06/13 12:01:22;;;;;;;10.13;7.03;;;;;;;;;;7035859;28;20043;-81
2021/06/13 12:04:45;;;;;;;7.75;6.95;;;;;;;;;;7041425;28;20054;-81
2021/06/13 12:08:06;;;;;;;7.63;6.88;;;;;;;;;;7052780;28;20055;-81
2021/06/13 12:11:36;;;;;;;8.02;6.97;;;;;;;;;;7058713;28;20043;-82
2021/06/13 12:14:56;;;;;;;7.38;6.55;;;;;;;;;;7025020;28;20043;-81
2021/06/13 12:18:17;;;;;;;9.52;6.50;;;;;;;;;;7054721;28;20078;-81
2021/06/13 12:21:37;;;;;;;8.95;7.18;;;;;;;;;;7058452;28;20053;-81
2021/06/13 12:28:31;;;;;;;6.70;6.10;;;;;;;;;;7043147;28;20075;-82
2021/06/13 12:31:53;;;;;;;9.13;6.20;;;;;;;;;;7050283;28;20415;-81
2021/06/13 12:35:15;;;;;;;9.43;6.22;;;;;;;;;;7064800;28;20047;-81
2021/06/13 12:38:36;;;;;;;9.70;6.63;;;;;;;;;;7027340;28;20035;-81
2021/06/13 12:42:12;;;;;;;7.60;6.05;;;;;;;;;;7050596;28;20075;-81
2021/06/13 12:45:34;;;;;;;7.25;6.50;;;;;;;;;;7022609;28;20047;-81
2021/06/13 12:48:59;;;;;;;8.30;7.13;;;;;;;;;;7041579;28;20040;-81
2021/06/13 12:52:19;;;;;;;15.13;6.90;;;;;;;;;;7054717;28;20048;-81
2021/06/13 12:55:42;;;;;;;11.80;6.82;;;;;;;;;;7056920;28;20050;-81
2021/06/13 12:59:03;;;;;;;7.13;6.40;;;;;;;;;;7030138;28;20058;-81
2021/06/13 13:02:24;;;;;;;7.10;6.47;;;;;;;;;;7057644;28;20067;-81
2021/06/13 13:06:04;;;;;;;7.07;6.40;;;;;;;;;;7017223;28;20043;-81
2021/06/13 13:09:24;;;;;;;6.60;5.90;;;;;;;;;;7007210;28;20052;-81
2021/06/13 13:12:53;;;;;;;8.10;5.85;;;;;;;;;;7058134;28;20130;-81
2021/06/13 13:16:24;;;;;;;8.25;6.22;;;;;;;;;;7052827;28;20040;-82
2021/06/13 13:19:45;;;;;;;8.20;5.93;;;;;;;;;;7029737;28;20050;-81
2021/06/13 13:23:10;;;;;;;6.25;5.50;;;;;;;;;;7044461;28;20056;-81
2021/06/13 13:26:31;;;;;;;8.82;5.70;;;;;;;;;;7015940;22;20466;-82
2021/06/13 13:29:51;;;;;;;6.63;6.03;;;;;;;;;;7023477;28;20063;-81
2021/06/13 13:33:12;;;;;;;6.93;6.00;;;;;;;;;;7025925;28;20079;-81
2021/06/13 13:36:40;;;;;;;6.68;5.93;;;;;;;;;;7026281;28;20048;-82
2021/06/13 13:40:08;;;;;;;6.93;5.72;;;;;;;;;;7006394;28;20101;-81
2021/06/13 13:43:29;;;;;;;;;;;;;;;;;;7023819;28;20056;-81
2021/06/13 13:47:01;;;;;;;7.75;5.10;;;;;;;;;;7023354;28;19969;-83
2021/06/13 13:50:34;;;;;;;7.63;5.05;;;;;;;;;;7023283;28;20040;-81
2021/06/13 13:53:55;;;;;;;6.53;5.55;;;;;;;;;;7021551;28;20071;-82
2021/06/13 13:57:15;;;;;;;7.38;5.40;;;;;;;;;;7006483;28;20063;-82
2021/06/13 14:00:36;;;;;;;5.65;5.15;;;;;;;;;;7023468;28;20458;-81
2021/06/13 14:03:57;;;;;;;5.65;5.05;;;;;;;;;;7023208;28;20485;-81
2021/06/13 14:07:17;;;;;;;5.38;4.88;;;;;;;;;;7022593;28;20036;-80
2021/06/13 14:10:38;;;;;;;5.55;5.00;;;;;;;;;;7023177;28;20051;-80
2021/06/13 14:13:59;;;;;;;9.35;5.07;;;;;;;;;;7022589;28;20134;-81
2021/06/13 14:17:20;;;;;;;6.63;5.00;;;;;;;;;;7020393;28;20052;-82
2021/06/13 14:20:40;;;;;;;5.45;4.90;;;;;;;;;;7019867;28;20393;-82
2021/06/13 14:24:00;;;;;;;7.00;5.32;;;;;;;;;;7019524;28;20051;-82
2021/06/13 14:27:21;;;;;;;5.70;5.20;;;;;;;;;;7019421;28;20182;-82
2021/06/13 14:30:41;;;;;;;6.00;5.40;;;;;;;;;;7022063;28;20039;-82
2021/06/13 14:34:02;;;;;;;7.90;5.38;;;;;;;;;;7020703;28;20093;-82
2021/06/13 14:37:23;;;;;;;5.53;4.88;;;;;;;;;;7021382;28;20059;-82
2021/06/13 14:40:44;;;;;;;5.38;4.90;;;;;;;;;;7022399;28;20044;-82
2021/06/13 14:44:05;;;;;;;7.53;4.88;;;;;;;;;;7003287;28;20055;-82
2021/06/13 14:47:26;;;;;;;6.20;5.20;;;;;;;;;;7018046;28;20048;-82
2021/06/13 14:50:46;;;;;;;5.18;4.68;;;;;;;;;;7020973;28;20097;-82
2021/06/13 14:54:07;;;;;;;8.65;4.63;;;;;;;;;;7021626;28;20135;-84
2021/06/13 14:57:27;;;;;;;6.20;5.20;;;;;;;;;;7022343;28;20358;-82
2021/06/13 15:00:51;;;;;;;5.25;4.80;;;;;;;;;;7022168;28;20139;-82
2021/06/13 15:04:12;;;;;;;5.88;5.00;;;;;;;;;;7020096;28;20389;-82
2021/06/13 15:07:33;;;;;;;4.68;4.28;;;;;;;;;;7020504;28;20032;-82
2021/06/13 15:10:54;;;;;;;5.30;4.78;;;;;;;;;;7022214;28;20117;-81
2021/06/13 15:14:14;;;;;;;4.90;4.40;;;;;;;;;;7022058;28;20464;-81
2021/06/13 15:17:35;;;;;;;5.15;4.65;;;;;;;;;;7022399;28;20055;-80
2021/06/13 15:20:55;;;;;;;5.85;4.65;;;;;;;;;;7022673;28;20109;-81
2021/06/13 15:24:15;;;;;;;4.90;4.50;;;;;;;;;;7022114;28;20105;-81
2021/06/13 15:27:36;;;;;;;5.25;4.50;;;;;;;;;;7022971;28;20139;-80
2021/06/13 15:30:57;;;;;;;5.15;4.65;;;;;;;;;;7024440;28;20126;-80
2021/06/13 15:34:19;;;;;;;6.70;4.88;;;;;;;;;;7027364;28;20055;-80
2021/06/13 15:37:40;;;;;;;4.95;4.53;;;;;;;;;;7025578;28;20470;-81
2021/06/13 15:41:01;;;;;;;4.65;4.25;;;;;;;;;;7025471;28;20093;-82
2021/06/13 15:44:23;;;;;;;5.55;4.95;;;;;;;;;;7026931;28;20044;-82
2021/06/13 15:47:45;;;;;;;16.88;5.50;;;;;;;;;;7025777;28;20059;-82
2021/06/13 15:51:05;;;;;;;10.70;5.00;;;;;;;;;;7026830;28;20332;-82
2021/06/13 15:54:30;;;;;;;11.25;4.53;;;;;;;;;;7025774;28;20047;-82
2021/06/13 15:57:50;;;;;;;8.57;4.25;;;;;;;;;;7025999;28;20045;-82
2021/06/13 16:01:10;;;;;;;4.80;4.40;;;;;;;;;;7026377;28;20134;-82
2021/06/13 16:04:33;;;;;;;7.38;4.32;;;;;;;;;;7026977;28;20060;-82
2021/06/13 16:07:53;;;;;;;5.82;4.50;;;;;;;;;;7026698;28;20399;-82
2021/06/13 16:11:15;;;;;;;5.07;4.57;;;;;;;;;;7025638;28;20481;-82
2021/06/13 16:14:36;;;;;;;5.07;4.47;;;;;;;;;;7025215;28;20048;-82
2021/06/13 16:17:57;;;;;;;8.13;4.90;;;;;;;;;;7026454;28;20143;-82
2021/06/13 16:21:18;;;;;;;5.93;4.95;;;;;;;;;;7024887;28;20044;-81
2021/06/13 16:24:40;;;;;;;6.60;4.88;;;;;;;;;;7026134;28;20610;-82
2021/06/13 16:28:01;;;;;;;7.47;5.13;;;;;;;;;;7024608;28;20047;-82
2021/06/13 16:31:21;;;;;;;6.00;5.22;;;;;;;;;;7026569;28;20098;-81
2021/06/13 16:34:42;;;;;;;6.13;4.93;;;;;;;;;;7025976;28;20048;-82
2021/06/13 16:38:03;;;;;;;5.60;5.03;;;;;;;;;;7025895;28;20094;-82
2021/06/13 16:41:23;;;;;;;5.75;5.25;;;;;;;;;;7024410;28;20040;-82
2021/06/13 16:44:44;;;;;;;6.47;4.88;;;;;;;;;;7026071;28;20056;-81
2021/06/13 16:48:06;;;;;;;7.75;4.75;;;;;;;;;;7025339;28;20126;-81
2021/06/13 16:51:26;;;;;;;5.43;4.93;;;;;;;;;;7025195;28;20384;-82
2021/06/13 16:54:46;;;;;;;5.30;4.82;;;;;;;;;;7025745;28;20477;-81
2021/06/13 16:58:07;;;;;;;5.97;4.95;;;;;;;;;;7025132;28;20087;-81
2021/06/13 17:01:27;;;;;;;6.68;4.75;;;;;;;;;;7025815;28;20047;-81
2021/06/13 17:04:48;;;;;;;5.68;4.72;;;;;;;;;;7025332;28;20552;-81
2021/06/13 17:08:08;;;;;;;5.97;5.28;;;;;;;;;;7025887;28;20389;-81
2021/06/13 17:11:29;;;;;;;5.35;4.85;;;;;;;;;;7024680;28;20040;-81
2021/06/13 17:14:49;;;;;;;5.47;4.97;;;;;;;;;;7025808;28;20552;-81
2021/06/13 17:18:10;;;;;;;8.40;5.13;;;;;;;;;;7025183;28;20477;-82
2021/06/13 17:21:30;;;;;;;6.78;5.30;;;;;;;;;;7024995;28;20046;-81
2021/06/13 17:24:53;;;;;;;6.78;5.20;;;;;;;;;;7025090;28;20433;-81
2021/06/13 17:28:14;;;;;;;5.20;4.70;;;;;;;;;;7025165;28;20130;-82
2021/06/13 17:31:37;;;;;;;7.82;4.78;;;;;;;;;;7024549;28;20064;-81
2021/06/13 17:34:58;;;;;;;5.40;4.90;;;;;;;;;;7023644;28;20040;-81
2021/06/13 17:38:18;;;;;;;5.38;4.85;;;;;;;;;;7023986;28;20143;-82
2021/06/13 17:41:48;;;;;;;5.28;4.78;;;;;;;;;;7023370;28;20047;-82
2021/06/13 17:45:13;;;;;;;5.15;4.65;;;;;;;;;;7023516;28;20063;-82
2021/06/13 17:48:38;;;;;;;5.18;4.70;;;;;;;;;;7024478;28;20035;-81
2021/06/13 17:52:00;;;;;;;5.20;4.70;;;;;;;;;;7023016;28;20121;-82
2021/06/13 17:55:20;;;;;;;5.15;4.70;;;;;;;;;;7023883;28;20052;-81
2021/06/13 17:58:44;;;;;;;4.97;4.47;;;;;;;;;;7023821;28;20102;-82
2021/06/13 18:02:05;;;;;;;5.60;4.97;;;;;;;;;;7024375;28;20590;-82
2021/06/13 18:05:25;;;;;;;5.10;4.60;;;;;;;;;;7024014;28;20052;-82
2021/06/13 18:08:46;;;;;;;6.07;4.93;;;;;;;;;;7024412;28;20048;-81
2021/06/13 18:12:07;;;;;;;5.40;4.90;;;;;;;;;;7009116;28;20048;-81
2021/06/13 18:15:28;;;;;;;5.53;4.50;;;;;;;;;;7024106;28;20390;-82
2021/06/13 18:18:48;;;;;;;5.20;4.47;;;;;;;;;;7023963;28;20066;-81
2021/06/13 18:22:09;;;;;;;5.53;4.63;;;;;;;;;;7024056;28;20044;-81
2021/06/13 18:25:29;;;;;;;5.03;4.53;;;;;;;;;;7023678;28;20087;-81
2021/06/13 18:28:50;;;;;;;4.82;4.43;;;;;;;;;;7023903;28;20043;-81
2021/06/13 18:32:10;;;;;;;4.93;4.43;;;;;;;;;;7023944;28;20139;-81
2021/06/13 18:35:31;;;;;;;4.38;3.97;;;;;;;;;;7023615;28;20056;-81
2021/06/13 18:38:52;;;;;;;5.15;4.65;;;;;;;;;;7023853;28;20048;-81
2021/06/13 18:42:12;;;;;;;5.45;4.95;;;;;;;;;;7005354;28;20454;-81
2021/06/13 18:45:33;;;;;;;5.22;4.65;;;;;;;;;;7023389;28;20134;-81
2021/06/13 18:48:53;;;;;;;5.05;4.63;;;;;;;;;;7022139;28;20037;-81
2021/06/13 18:52:14;;;;;;;5.95;4.20;;;;;;;;;;7023517;28;20404;-81
2021/06/13 18:55:34;;;;;;;5.30;4.80;;;;;;;;;;7022735;28;20483;-81
2021/06/13 18:58:59;;;;;;;5.80;5.25;;;;;;;;;;7023155;28;20422;-81
2021/06/13 19:02:19;;;;;;;5.10;4.60;;;;;;;;;;7021578;28;20047;-81
2021/06/13 19:05:40;;;;;;;5.20;4.25;;;;;;;;;;7022150;28;20052;-81
2021/06/13 19:09:00;;;;;;;4.15;3.85;;;;;;;;;;7027311;28;20051;-82
2021/06/13 19:12:20;;;;;;;4.93;4.53;;;;;;;;;;7028128;28;20051;-81
2021/06/13 19:15:42;;;;;;;5.15;4.55;;;;;;;;;;7027383;28;20101;-81
2021/06/13 19:19:03;;;;;;;5.35;4.35;;;;;;;;;;7026449;28;20129;-81
2021/06/13 19:22:24;;;;;;;6.97;4.20;;;;;;;;;;7027615;28;20127;-82
2021/06/13 19:25:44;;;;;;;4.40;4.03;;;;;;;;;;7027528;28;20059;-81
2021/06/13 19:29:04;;;;;;;4.93;4.43;;;;;;;;;;7027809;28;20051;-82
2021/06/13 19:32:25;;;;;;;5.55;4.20;;;;;;;;;;7026250;28;20073;-82
2021/06/13 19:35:46;;;;;;;4.55;4.15;;;;;;;;;;7027662;28;20520;-82
2021/06/13 19:39:07;;;;;;;4.65;4.25;;;;;;;;;;7026931;28;20131;-82
2021/06/13 19:42:27;;;;;;;5.60;4.40;;;;;;;;;;7027263;28;20501;-81
2021/06/13 19:45:49;;;;;;;4.90;4.50;;;;;;;;;;7026926;28;20074;-81
2021/06/13 19:49:09;;;;;;;5.03;4.53;;;;;;;;;;7040191;28;20469;-81
2021/06/13 19:52:30;;;;;;;4.60;4.20;;;;;;;;;;7023852;28;20134;-82
2021/06/13 19:55:53;;;;;;;11.73;5.70;;;;;;;;;;7025221;28;20977;-85
2021/06/13 19:59:13;;;;;;;8.23;6.10;;;;;;;;;;7024578;28;20405;-83
2021/06/13 20:02:34;;;;;;;10.48;7.50;;;;;;;;;;7027211;28;20524;-83
2021/06/13 20:05:56;;;;;;;12.05;7.97;;;;;;;;;;7026636;28;20048;-84
2021/06/13 20:09:17;;;;;;;9.82;8.20;;;;;;;;;;7026975;28;20136;-84